sensor_id;sensor_type;location;lat;lon;timestamp;temperature;humidity
57026;DHT22;43961;52.940;6.834;2023-05-07T00:00:03;12.60;99.90
57026;DHT22;43961;52.940;6.834;2023-05-07T00:02:32;12.60;99.90
57026;DHT22;43961;52.940;6.834;2023-05-07T00:04:58;12.60;99.90
57026;DHT22;43961;52.940;6.834;2023-05-07T00:07:23;12.50;99.90
57026;DHT22;43961;52.940;6.834;2023-05-07T00:09:50;12.50;99.90
57026;DHT22;43961;52.940;6.834;2023-05-07T00:12:16;12.50;99.90
57026;DHT22;43961;52.940;6.834;2023-05-07T00:14:41;12.50;99.90
57026;DHT22;43961;52.940;6.834;2023-05-07T00:17:07;12.40;99.90
57026;DHT22;43961;52.940;6.834;2023-05-07T00:19:33;12.50;99.90
57026;DHT22;43961;52.940;6.834;2023-05-07T00:21:58;12.50;99.90
57026;DHT22;43961;52.940;6.834;2023-05-07T00:24:24;12.40;99.90
57026;DHT22;43961;52.940;6.834;2023-05-07T00:26:50;12.40;99.90
57026;DHT22;43961;52.940;6.834;2023-05-07T00:29:15;12.30;99.90
57026;DHT22;43961;52.940;6.834;2023-05-07T00:31:41;12.30;99.90
57026;DHT22;43961;52.940;6.834;2023-05-07T00:34:07;12.30;99.90
57026;DHT22;43961;52.940;6.834;2023-05-07T00:36:32;12.20;99.90
57026;DHT22;43961;52.940;6.834;2023-05-07T00:39:00;12.20;99.90
57026;DHT22;43961;52.940;6.834;2023-05-07T00:41:26;12.20;99.90
57026;DHT22;43961;52.940;6.834;2023-05-07T00:43:52;12.20;99.90
57026;DHT22;43961;52.940;6.834;2023-05-07T00:46:20;12.10;99.90
57026;DHT22;43961;52.940;6.834;2023-05-07T00:48:47;12.10;99.90
57026;DHT22;43961;52.940;6.834;2023-05-07T00:51:13;12.10;99.90
57026;DHT22;43961;52.940;6.834;2023-05-07T00:53:39;12.00;99.90
57026;DHT22;43961;52.940;6.834;2023-05-07T00:56:05;12.00;99.90
57026;DHT22;43961;52.940;6.834;2023-05-07T00:58:32;11.90;99.90
57026;DHT22;43961;52.940;6.834;2023-05-07T01:00:59;11.90;99.90
57026;DHT22;43961;52.940;6.834;2023-05-07T01:03:24;11.90;99.90
57026;DHT22;43961;52.940;6.834;2023-05-07T01:05:52;11.90;99.90
57026;DHT22;43961;52.940;6.834;2023-05-07T01:08:18;11.80;99.90
57026;DHT22;43961;52.940;6.834;2023-05-07T01:10:44;11.80;99.90
57026;DHT22;43961;52.940;6.834;2023-05-07T01:13:12;11.80;99.90
57026;DHT22;43961;52.940;6.834;2023-05-07T01:15:39;11.80;99.90
57026;DHT22;43961;52.940;6.834;2023-05-07T01:18:06;11.70;99.90
57026;DHT22;43961;52.940;6.834;2023-05-07T01:20:32;11.70;99.90
57026;DHT22;43961;52.940;6.834;2023-05-07T01:23:00;11.70;99.90
57026;DHT22;43961;52.940;6.834;2023-05-07T01:25:27;11.60;99.90
57026;DHT22;43961;52.940;6.834;2023-05-07T01:27:52;11.60;99.90
57026;DHT22;43961;52.940;6.834;2023-05-07T01:30:19;11.50;99.90
57026;DHT22;43961;52.940;6.834;2023-05-07T01:33:03;11.50;99.90
57026;DHT22;43961;52.940;6.834;2023-05-07T01:35:37;11.50;99.90
57026;DHT22;43961;52.940;6.834;2023-05-07T01:38:04;11.40;99.90
57026;DHT22;43961;52.940;6.834;2023-05-07T01:40:31;11.40;99.90
57026;DHT22;43961;52.940;6.834;2023-05-07T01:42:57;11.40;99.90
57026;DHT22;43961;52.940;6.834;2023-05-07T01:45:23;11.40;99.90
57026;DHT22;43961;52.940;6.834;2023-05-07T01:47:49;11.30;99.90
57026;DHT22;43961;52.940;6.834;2023-05-07T01:50:17;11.30;99.90
57026;DHT22;43961;52.940;6.834;2023-05-07T01:52:43;11.30;99.90
57026;DHT22;43961;52.940;6.834;2023-05-07T01:55:09;11.20;99.90
57026;DHT22;43961;52.940;6.834;2023-05-07T01:57:35;11.20;99.90
57026;DHT22;43961;52.940;6.834;2023-05-07T02:00:01;11.20;99.90
57026;DHT22;43961;52.940;6.834;2023-05-07T02:02:28;11.20;99.90
57026;DHT22;43961;52.940;6.834;2023-05-07T02:04:54;11.20;99.90
57026;DHT22;43961;52.940;6.834;2023-05-07T02:07:19;11.10;99.90
57026;DHT22;43961;52.940;6.834;2023-05-07T02:09:45;11.10;99.90
57026;DHT22;43961;52.940;6.834;2023-05-07T02:12:11;11.10;99.90
57026;DHT22;43961;52.940;6.834;2023-05-07T02:14:36;11.10;99.90
57026;DHT22;43961;52.940;6.834;2023-05-07T02:17:02;11.10;99.90
57026;DHT22;43961;52.940;6.834;2023-05-07T02:19:27;11.10;99.90
57026;DHT22;43961;52.940;6.834;2023-05-07T02:21:53;11.10;99.90
57026;DHT22;43961;52.940;6.834;2023-05-07T02:24:19;11.00;99.90
57026;DHT22;43961;52.940;6.834;2023-05-07T02:26:45;11.00;99.90
57026;DHT22;43961;52.940;6.834;2023-05-07T02:29:11;11.00;99.90
57026;DHT22;43961;52.940;6.834;2023-05-07T02:31:36;11.00;99.90
57026;DHT22;43961;52.940;6.834;2023-05-07T02:34:02;11.00;99.90
57026;DHT22;43961;52.940;6.834;2023-05-07T02:36:27;10.90;99.90
57026;DHT22;43961;52.940;6.834;2023-05-07T02:38:54;10.90;99.90
57026;DHT22;43961;52.940;6.834;2023-05-07T02:41:20;10.90;99.90
57026;DHT22;43961;52.940;6.834;2023-05-07T02:43:46;10.90;99.90
57026;DHT22;43961;52.940;6.834;2023-05-07T02:46:11;10.90;99.90
57026;DHT22;43961;52.940;6.834;2023-05-07T02:48:37;10.90;99.90
57026;DHT22;43961;52.940;6.834;2023-05-07T02:51:03;10.90;99.90
57026;DHT22;43961;52.940;6.834;2023-05-07T02:53:29;10.90;99.90
57026;DHT22;43961;52.940;6.834;2023-05-07T02:55:56;10.90;99.90
57026;DHT22;43961;52.940;6.834;2023-05-07T02:58:23;10.90;99.90
57026;DHT22;43961;52.940;6.834;2023-05-07T03:00:48;10.90;99.90
57026;DHT22;43961;52.940;6.834;2023-05-07T03:03:14;10.80;99.90
57026;DHT22;43961;52.940;6.834;2023-05-07T03:05:41;10.80;99.90
57026;DHT22;43961;52.940;6.834;2023-05-07T03:08:07;10.80;99.90
57026;DHT22;43961;52.940;6.834;2023-05-07T03:10:33;10.90;99.90
57026;DHT22;43961;52.940;6.834;2023-05-07T03:13:00;10.80;99.90
57026;DHT22;43961;52.940;6.834;2023-05-07T03:15:26;10.80;99.90
57026;DHT22;43961;52.940;6.834;2023-05-07T03:17:53;10.80;99.90
57026;DHT22;43961;52.940;6.834;2023-05-07T03:20:19;10.80;99.90
57026;DHT22;43961;52.940;6.834;2023-05-07T03:22:44;10.80;99.90
57026;DHT22;43961;52.940;6.834;2023-05-07T03:25:10;10.80;99.90
57026;DHT22;43961;52.940;6.834;2023-05-07T03:27:37;10.80;99.90
57026;DHT22;43961;52.940;6.834;2023-05-07T03:30:04;10.70;99.90
57026;DHT22;43961;52.940;6.834;2023-05-07T03:32:30;10.70;99.90
57026;DHT22;43961;52.940;6.834;2023-05-07T03:34:56;10.70;99.90
57026;DHT22;43961;52.940;6.834;2023-05-07T03:37:22;10.70;99.90
57026;DHT22;43961;52.940;6.834;2023-05-07T03:39:47;10.70;99.90
57026;DHT22;43961;52.940;6.834;2023-05-07T03:42:14;10.70;99.90
57026;DHT22;43961;52.940;6.834;2023-05-07T03:44:40;10.70;99.90
57026;DHT22;43961;52.940;6.834;2023-05-07T03:47:06;10.60;99.90
57026;DHT22;43961;52.940;6.834;2023-05-07T03:49:31;10.70;99.90
57026;DHT22;43961;52.940;6.834;2023-05-07T03:51:57;10.70;99.90
57026;DHT22;43961;52.940;6.834;2023-05-07T03:54:23;10.70;99.90
57026;DHT22;43961;52.940;6.834;2023-05-07T03:56:48;10.70;99.90
57026;DHT22;43961;52.940;6.834;2023-05-07T03:59:14;10.70;99.90
57026;DHT22;43961;52.940;6.834;2023-05-07T04:01:40;10.70;99.90
57026;DHT22;43961;52.940;6.834;2023-05-07T04:04:05;10.70;99.90
57026;DHT22;43961;52.940;6.834;2023-05-07T04:06:32;10.70;99.90
57026;DHT22;43961;52.940;6.834;2023-05-07T04:08:58;10.70;99.90
57026;DHT22;43961;52.940;6.834;2023-05-07T04:11:23;10.70;99.90
57026;DHT22;43961;52.940;6.834;2023-05-07T04:13:50;10.70;99.90
57026;DHT22;43961;52.940;6.834;2023-05-07T04:16:15;10.60;99.90
57026;DHT22;43961;52.940;6.834;2023-05-07T04:18:41;10.70;99.90
57026;DHT22;43961;52.940;6.834;2023-05-07T04:21:17;10.70;99.90
57026;DHT22;43961;52.940;6.834;2023-05-07T04:23:43;10.60;99.90
57026;DHT22;43961;52.940;6.834;2023-05-07T04:26:09;10.70;99.90
57026;DHT22;43961;52.940;6.834;2023-05-07T04:28:35;10.60;99.90
57026;DHT22;43961;52.940;6.834;2023-05-07T04:31:01;10.60;99.90
57026;DHT22;43961;52.940;6.834;2023-05-07T04:33:26;10.60;99.90
57026;DHT22;43961;52.940;6.834;2023-05-07T04:35:52;10.60;99.90
57026;DHT22;43961;52.940;6.834;2023-05-07T04:38:18;10.60;99.90
57026;DHT22;43961;52.940;6.834;2023-05-07T04:40:44;10.60;99.90
57026;DHT22;43961;52.940;6.834;2023-05-07T04:43:10;10.60;99.90
57026;DHT22;43961;52.940;6.834;2023-05-07T04:45:36;10.60;99.90
57026;DHT22;43961;52.940;6.834;2023-05-07T04:48:02;10.60;99.90
57026;DHT22;43961;52.940;6.834;2023-05-07T04:50:27;10.60;99.90
57026;DHT22;43961;52.940;6.834;2023-05-07T04:52:53;10.60;99.90
57026;DHT22;43961;52.940;6.834;2023-05-07T04:55:19;10.70;99.90
57026;DHT22;43961;52.940;6.834;2023-05-07T04:57:44;10.70;99.90
57026;DHT22;43961;52.940;6.834;2023-05-07T05:00:11;10.70;99.90
57026;DHT22;43961;52.940;6.834;2023-05-07T05:02:40;10.70;99.90
57026;DHT22;43961;52.940;6.834;2023-05-07T05:05:07;10.70;99.90
57026;DHT22;43961;52.940;6.834;2023-05-07T05:07:33;10.70;99.90
57026;DHT22;43961;52.940;6.834;2023-05-07T05:09:59;10.70;99.90
57026;DHT22;43961;52.940;6.834;2023-05-07T05:12:25;10.70;99.90
57026;DHT22;43961;52.940;6.834;2023-05-07T05:14:50;10.70;99.90
57026;DHT22;43961;52.940;6.834;2023-05-07T05:17:16;10.70;99.90
57026;DHT22;43961;52.940;6.834;2023-05-07T05:19:42;10.80;99.90
57026;DHT22;43961;52.940;6.834;2023-05-07T05:22:07;10.80;99.90
57026;DHT22;43961;52.940;6.834;2023-05-07T05:24:33;10.70;99.90
57026;DHT22;43961;52.940;6.834;2023-05-07T05:26:59;10.80;99.90
57026;DHT22;43961;52.940;6.834;2023-05-07T05:29:28;10.80;99.90
57026;DHT22;43961;52.940;6.834;2023-05-07T05:31:53;10.80;99.90
57026;DHT22;43961;52.940;6.834;2023-05-07T05:34:19;10.80;99.90
57026;DHT22;43961;52.940;6.834;2023-05-07T05:36:45;10.80;99.90
57026;DHT22;43961;52.940;6.834;2023-05-07T05:39:11;10.80;99.90
57026;DHT22;43961;52.940;6.834;2023-05-07T05:41:37;10.80;99.90
57026;DHT22;43961;52.940;6.834;2023-05-07T05:44:02;10.80;99.90
57026;DHT22;43961;52.940;6.834;2023-05-07T05:46:28;10.80;99.90
57026;DHT22;43961;52.940;6.834;2023-05-07T05:48:53;10.90;99.90
57026;DHT22;43961;52.940;6.834;2023-05-07T05:51:21;10.90;99.90
57026;DHT22;43961;52.940;6.834;2023-05-07T05:53:46;10.90;99.90
57026;DHT22;43961;52.940;6.834;2023-05-07T05:56:12;10.90;99.90
57026;DHT22;43961;52.940;6.834;2023-05-07T05:58:38;10.90;99.90
57026;DHT22;43961;52.940;6.834;2023-05-07T06:01:03;11.00;99.90
57026;DHT22;43961;52.940;6.834;2023-05-07T06:03:30;10.90;99.90
57026;DHT22;43961;52.940;6.834;2023-05-07T06:05:57;11.00;99.90
57026;DHT22;43961;52.940;6.834;2023-05-07T06:08:23;11.00;99.90
57026;DHT22;43961;52.940;6.834;2023-05-07T06:10:49;11.00;99.90
57026;DHT22;43961;52.940;6.834;2023-05-07T06:13:15;11.00;99.90
57026;DHT22;43961;52.940;6.834;2023-05-07T06:15:41;11.10;99.90
57026;DHT22;43961;52.940;6.834;2023-05-07T06:18:06;11.10;99.90
57026;DHT22;43961;52.940;6.834;2023-05-07T06:20:32;11.20;99.90
57026;DHT22;43961;52.940;6.834;2023-05-07T06:22:58;11.20;99.90
57026;DHT22;43961;52.940;6.834;2023-05-07T06:25:23;11.20;99.90
57026;DHT22;43961;52.940;6.834;2023-05-07T06:27:49;11.20;99.90
57026;DHT22;43961;52.940;6.834;2023-05-07T06:30:14;11.20;99.90
57026;DHT22;43961;52.940;6.834;2023-05-07T06:32:40;11.30;99.90
57026;DHT22;43961;52.940;6.834;2023-05-07T06:35:06;11.30;99.90
57026;DHT22;43961;52.940;6.834;2023-05-07T06:37:32;11.30;99.90
57026;DHT22;43961;52.940;6.834;2023-05-07T06:39:58;11.30;99.90
57026;DHT22;43961;52.940;6.834;2023-05-07T06:42:23;11.30;99.90
57026;DHT22;43961;52.940;6.834;2023-05-07T06:44:49;11.30;99.90
57026;DHT22;43961;52.940;6.834;2023-05-07T06:47:15;11.30;99.90
57026;DHT22;43961;52.940;6.834;2023-05-07T06:49:40;11.30;99.90
57026;DHT22;43961;52.940;6.834;2023-05-07T06:52:06;11.20;99.90
57026;DHT22;43961;52.940;6.834;2023-05-07T06:54:32;11.30;99.90
57026;DHT22;43961;52.940;6.834;2023-05-07T06:56:57;11.20;99.90
57026;DHT22;43961;52.940;6.834;2023-05-07T06:59:23;11.20;99.90
57026;DHT22;43961;52.940;6.834;2023-05-07T07:01:49;11.20;99.90
57026;DHT22;43961;52.940;6.834;2023-05-07T07:04:15;11.20;99.90
57026;DHT22;43961;52.940;6.834;2023-05-07T07:06:40;11.20;99.90
57026;DHT22;43961;52.940;6.834;2023-05-07T07:09:06;11.20;99.90
57026;DHT22;43961;52.940;6.834;2023-05-07T07:11:32;11.20;99.90
57026;DHT22;43961;52.940;6.834;2023-05-07T07:13:57;11.20;99.90
57026;DHT22;43961;52.940;6.834;2023-05-07T07:16:24;11.20;99.90
57026;DHT22;43961;52.940;6.834;2023-05-07T07:18:50;11.30;99.90
57026;DHT22;43961;52.940;6.834;2023-05-07T07:21:16;11.30;99.90
57026;DHT22;43961;52.940;6.834;2023-05-07T07:23:42;11.40;99.90
57026;DHT22;43961;52.940;6.834;2023-05-07T07:26:07;11.40;99.90
57026;DHT22;43961;52.940;6.834;2023-05-07T07:28:33;11.50;99.90
57026;DHT22;43961;52.940;6.834;2023-05-07T07:30:59;11.60;99.90
57026;DHT22;43961;52.940;6.834;2023-05-07T07:33:24;11.60;99.90
57026;DHT22;43961;52.940;6.834;2023-05-07T07:35:50;11.70;99.90
57026;DHT22;43961;52.940;6.834;2023-05-07T07:38:16;11.70;99.90
57026;DHT22;43961;52.940;6.834;2023-05-07T07:40:41;11.70;99.90
57026;DHT22;43961;52.940;6.834;2023-05-07T07:43:09;11.80;99.90
57026;DHT22;43961;52.940;6.834;2023-05-07T07:45:37;11.80;99.90
57026;DHT22;43961;52.940;6.834;2023-05-07T07:48:02;11.80;99.90
57026;DHT22;43961;52.940;6.834;2023-05-07T07:50:28;11.80;99.90
57026;DHT22;43961;52.940;6.834;2023-05-07T07:52:54;11.80;99.90
57026;DHT22;43961;52.940;6.834;2023-05-07T07:55:20;11.80;99.90
57026;DHT22;43961;52.940;6.834;2023-05-07T07:57:49;11.80;99.90
57026;DHT22;43961;52.940;6.834;2023-05-07T08:00:15;11.90;99.90
57026;DHT22;43961;52.940;6.834;2023-05-07T08:02:44;11.90;99.90
57026;DHT22;43961;52.940;6.834;2023-05-07T08:05:10;12.00;99.90
57026;DHT22;43961;52.940;6.834;2023-05-07T08:07:36;12.10;99.90
57026;DHT22;43961;52.940;6.834;2023-05-07T08:10:02;12.10;99.90
57026;DHT22;43961;52.940;6.834;2023-05-07T08:12:28;12.20;99.90
57026;DHT22;43961;52.940;6.834;2023-05-07T08:14:53;12.20;99.90
57026;DHT22;43961;52.940;6.834;2023-05-07T08:17:19;12.20;99.90
57026;DHT22;43961;52.940;6.834;2023-05-07T08:19:47;12.20;99.90
57026;DHT22;43961;52.940;6.834;2023-05-07T08:22:13;12.20;99.90
57026;DHT22;43961;52.940;6.834;2023-05-07T08:24:40;12.20;99.90
57026;DHT22;43961;52.940;6.834;2023-05-07T08:27:05;12.30;99.90
57026;DHT22;43961;52.940;6.834;2023-05-07T08:29:31;12.30;99.90
57026;DHT22;43961;52.940;6.834;2023-05-07T08:31:56;12.30;99.90
57026;DHT22;43961;52.940;6.834;2023-05-07T08:34:22;12.50;99.90
57026;DHT22;43961;52.940;6.834;2023-05-07T08:36:48;12.60;99.90
57026;DHT22;43961;52.940;6.834;2023-05-07T08:39:15;12.70;99.90
57026;DHT22;43961;52.940;6.834;2023-05-07T08:41:44;12.70;99.90
57026;DHT22;43961;52.940;6.834;2023-05-07T08:44:12;12.80;99.90
57026;DHT22;43961;52.940;6.834;2023-05-07T08:46:39;12.80;99.90
57026;DHT22;43961;52.940;6.834;2023-05-07T08:49:07;12.90;99.90
57026;DHT22;43961;52.940;6.834;2023-05-07T08:51:34;13.00;99.90
57026;DHT22;43961;52.940;6.834;2023-05-07T08:54:01;13.10;99.90
57026;DHT22;43961;52.940;6.834;2023-05-07T08:56:27;13.10;99.90
57026;DHT22;43961;52.940;6.834;2023-05-07T08:58:53;13.20;99.90
57026;DHT22;43961;52.940;6.834;2023-05-07T09:01:22;13.30;99.90
57026;DHT22;43961;52.940;6.834;2023-05-07T09:03:47;13.30;99.90
57026;DHT22;43961;52.940;6.834;2023-05-07T09:06:15;13.30;99.90
57026;DHT22;43961;52.940;6.834;2023-05-07T09:08:41;13.40;99.90
57026;DHT22;43961;52.940;6.834;2023-05-07T09:11:09;13.40;99.90
57026;DHT22;43961;52.940;6.834;2023-05-07T09:13:35;13.50;99.90
57026;DHT22;43961;52.940;6.834;2023-05-07T09:16:12;13.60;99.90
57026;DHT22;43961;52.940;6.834;2023-05-07T09:18:44;13.70;99.90
57026;DHT22;43961;52.940;6.834;2023-05-07T09:21:11;13.80;99.90
57026;DHT22;43961;52.940;6.834;2023-05-07T09:23:37;13.90;99.90
57026;DHT22;43961;52.940;6.834;2023-05-07T09:26:03;13.90;99.90
57026;DHT22;43961;52.940;6.834;2023-05-07T09:28:29;13.90;99.90
57026;DHT22;43961;52.940;6.834;2023-05-07T09:30:55;14.00;99.90
57026;DHT22;43961;52.940;6.834;2023-05-07T09:33:21;14.10;99.90
57026;DHT22;43961;52.940;6.834;2023-05-07T09:35:51;14.10;99.90
57026;DHT22;43961;52.940;6.834;2023-05-07T09:38:18;14.10;99.90
57026;DHT22;43961;52.940;6.834;2023-05-07T09:40:45;14.10;99.90
57026;DHT22;43961;52.940;6.834;2023-05-07T09:43:13;14.10;99.90
57026;DHT22;43961;52.940;6.834;2023-05-07T09:45:39;14.10;99.90
57026;DHT22;43961;52.940;6.834;2023-05-07T09:48:06;14.10;99.90
57026;DHT22;43961;52.940;6.834;2023-05-07T09:50:36;14.10;99.90
57026;DHT22;43961;52.940;6.834;2023-05-07T09:53:03;14.30;99.90
57026;DHT22;43961;52.940;6.834;2023-05-07T09:55:29;14.50;99.90
57026;DHT22;43961;52.940;6.834;2023-05-07T09:57:55;14.50;99.90
57026;DHT22;43961;52.940;6.834;2023-05-07T10:00:24;14.70;99.90
57026;DHT22;43961;52.940;6.834;2023-05-07T10:02:57;14.90;99.90
57026;DHT22;43961;52.940;6.834;2023-05-07T10:05:23;15.00;99.90
57026;DHT22;43961;52.940;6.834;2023-05-07T10:07:49;15.20;99.90
57026;DHT22;43961;52.940;6.834;2023-05-07T10:10:16;15.30;99.90
57026;DHT22;43961;52.940;6.834;2023-05-07T10:12:42;15.20;99.90
57026;DHT22;43961;52.940;6.834;2023-05-07T10:15:09;15.20;99.90
57026;DHT22;43961;52.940;6.834;2023-05-07T10:17:39;15.20;99.90
57026;DHT22;43961;52.940;6.834;2023-05-07T10:20:06;15.30;99.90
57026;DHT22;43961;52.940;6.834;2023-05-07T10:22:39;15.60;99.90
57026;DHT22;43961;52.940;6.834;2023-05-07T10:25:23;15.70;99.90
57026;DHT22;43961;52.940;6.834;2023-05-07T10:27:51;15.80;99.90
57026;DHT22;43961;52.940;6.834;2023-05-07T10:33:02;15.80;99.90
57026;DHT22;43961;52.940;6.834;2023-05-07T10:35:38;15.90;99.90
57026;DHT22;43961;52.940;6.834;2023-05-07T10:38:05;15.90;99.90
57026;DHT22;43961;52.940;6.834;2023-05-07T10:40:31;15.90;99.90
57026;DHT22;43961;52.940;6.834;2023-05-07T10:42:58;15.90;99.90
57026;DHT22;43961;52.940;6.834;2023-05-07T10:45:26;15.90;99.90
57026;DHT22;43961;52.940;6.834;2023-05-07T10:48:14;16.00;99.90
57026;DHT22;43961;52.940;6.834;2023-05-07T10:50:42;15.90;99.90
57026;DHT22;43961;52.940;6.834;2023-05-07T10:55:50;15.90;99.90
57026;DHT22;43961;52.940;6.834;2023-05-07T10:58:27;16.00;99.90
57026;DHT22;43961;52.940;6.834;2023-05-07T11:00:58;16.10;99.90
57026;DHT22;43961;52.940;6.834;2023-05-07T11:03:25;16.10;99.90
57026;DHT22;43961;52.940;6.834;2023-05-07T11:08:57;16.10;99.90
57026;DHT22;43961;52.940;6.834;2023-05-07T11:11:49;16.30;99.90
57026;DHT22;43961;52.940;6.834;2023-05-07T11:17:09;16.20;99.90
57026;DHT22;43961;52.940;6.834;2023-05-07T11:19:51;16.20;99.90
57026;DHT22;43961;52.940;6.834;2023-05-07T11:25:02;16.20;99.90
57026;DHT22;43961;52.940;6.834;2023-05-07T11:27:29;16.30;99.90
57026;DHT22;43961;52.940;6.834;2023-05-07T11:29:55;16.30;99.90
57026;DHT22;43961;52.940;6.834;2023-05-07T11:32:25;16.40;99.90
57026;DHT22;43961;52.940;6.834;2023-05-07T11:34:55;16.50;99.90
57026;DHT22;43961;52.940;6.834;2023-05-07T11:37:22;16.60;99.90
57026;DHT22;43961;52.940;6.834;2023-05-07T11:39:48;16.80;99.90
57026;DHT22;43961;52.940;6.834;2023-05-07T11:42:35;17.00;99.90
57026;DHT22;43961;52.940;6.834;2023-05-07T11:45:03;17.00;99.90
57026;DHT22;43961;52.940;6.834;2023-05-07T11:47:32;16.80;99.90
57026;DHT22;43961;52.940;6.834;2023-05-07T11:50:03;16.80;99.90
57026;DHT22;43961;52.940;6.834;2023-05-07T11:52:31;17.00;99.90
57026;DHT22;43961;52.940;6.834;2023-05-07T11:54:58;17.10;99.90
57026;DHT22;43961;52.940;6.834;2023-05-07T11:57:25;17.20;99.90
57026;DHT22;43961;52.940;6.834;2023-05-07T11:59:58;17.20;99.90
57026;DHT22;43961;52.940;6.834;2023-05-07T12:02:25;17.30;99.90
57026;DHT22;43961;52.940;6.834;2023-05-07T12:04:53;17.40;99.90
57026;DHT22;43961;52.940;6.834;2023-05-07T12:07:18;17.40;99.90
57026;DHT22;43961;52.940;6.834;2023-05-07T12:09:45;17.30;99.90
57026;DHT22;43961;52.940;6.834;2023-05-07T12:12:11;17.20;99.90
57026;DHT22;43961;52.940;6.834;2023-05-07T12:14:42;17.30;99.90
57026;DHT22;43961;52.940;6.834;2023-05-07T12:17:08;17.20;99.90
57026;DHT22;43961;52.940;6.834;2023-05-07T12:19:35;17.10;99.90
57026;DHT22;43961;52.940;6.834;2023-05-07T12:22:03;17.10;99.90
57026;DHT22;43961;52.940;6.834;2023-05-07T12:24:30;17.10;99.90
57026;DHT22;43961;52.940;6.834;2023-05-07T12:27:06;17.10;99.90
57026;DHT22;43961;52.940;6.834;2023-05-07T12:29:32;17.20;99.90
57026;DHT22;43961;52.940;6.834;2023-05-07T12:31:58;17.40;99.90
57026;DHT22;43961;52.940;6.834;2023-05-07T12:34:24;17.60;99.90
57026;DHT22;43961;52.940;6.834;2023-05-07T12:36:49;17.70;99.90
57026;DHT22;43961;52.940;6.834;2023-05-07T12:39:15;17.80;99.90
57026;DHT22;43961;52.940;6.834;2023-05-07T12:41:58;17.90;99.90
57026;DHT22;43961;52.940;6.834;2023-05-07T12:44:31;18.10;99.90
57026;DHT22;43961;52.940;6.834;2023-05-07T12:46:58;18.10;99.90
57026;DHT22;43961;52.940;6.834;2023-05-07T12:49:24;18.10;99.90
57026;DHT22;43961;52.940;6.834;2023-05-07T12:51:50;18.20;99.90
57026;DHT22;43961;52.940;6.834;2023-05-07T12:54:29;18.10;99.90
57026;DHT22;43961;52.940;6.834;2023-05-07T12:57:07;18.20;99.90
57026;DHT22;43961;52.940;6.834;2023-05-07T12:59:37;18.10;99.90
57026;DHT22;43961;52.940;6.834;2023-05-07T13:02:04;18.00;99.90
57026;DHT22;43961;52.940;6.834;2023-05-07T13:04:29;18.00;99.90
57026;DHT22;43961;52.940;6.834;2023-05-07T13:06:55;18.10;99.90
57026;DHT22;43961;52.940;6.834;2023-05-07T13:09:21;18.20;99.90
57026;DHT22;43961;52.940;6.834;2023-05-07T13:11:48;18.30;99.90
57026;DHT22;43961;52.940;6.834;2023-05-07T13:14:14;18.40;99.90
57026;DHT22;43961;52.940;6.834;2023-05-07T13:16:40;18.40;99.90
57026;DHT22;43961;52.940;6.834;2023-05-07T13:19:05;18.40;99.90
57026;DHT22;43961;52.940;6.834;2023-05-07T13:21:32;18.50;99.90
57026;DHT22;43961;52.940;6.834;2023-05-07T13:23:58;18.60;99.90
57026;DHT22;43961;52.940;6.834;2023-05-07T13:26:24;18.50;99.90
57026;DHT22;43961;52.940;6.834;2023-05-07T13:28:50;18.30;99.90
57026;DHT22;43961;52.940;6.834;2023-05-07T13:31:17;18.30;99.90
57026;DHT22;43961;52.940;6.834;2023-05-07T13:33:43;18.20;99.90
57026;DHT22;43961;52.940;6.834;2023-05-07T13:36:09;18.20;99.90
57026;DHT22;43961;52.940;6.834;2023-05-07T13:38:34;18.20;99.90
57026;DHT22;43961;52.940;6.834;2023-05-07T13:41:00;18.20;99.90
57026;DHT22;43961;52.940;6.834;2023-05-07T13:43:26;18.10;99.90
57026;DHT22;43961;52.940;6.834;2023-05-07T13:45:51;18.00;99.90
57026;DHT22;43961;52.940;6.834;2023-05-07T13:48:17;18.10;99.90
57026;DHT22;43961;52.940;6.834;2023-05-07T13:50:43;18.20;99.90
57026;DHT22;43961;52.940;6.834;2023-05-07T13:53:08;18.20;99.90
57026;DHT22;43961;52.940;6.834;2023-05-07T13:55:34;18.30;99.90
57026;DHT22;43961;52.940;6.834;2023-05-07T13:58:02;18.40;99.90
57026;DHT22;43961;52.940;6.834;2023-05-07T14:00:29;18.40;99.90
57026;DHT22;43961;52.940;6.834;2023-05-07T14:02:55;18.40;99.90
57026;DHT22;43961;52.940;6.834;2023-05-07T14:05:22;18.60;99.90
57026;DHT22;43961;52.940;6.834;2023-05-07T14:07:54;18.80;99.90
57026;DHT22;43961;52.940;6.834;2023-05-07T14:10:21;18.90;99.90
57026;DHT22;43961;52.940;6.834;2023-05-07T14:12:47;19.00;99.90
57026;DHT22;43961;52.940;6.834;2023-05-07T14:15:13;19.00;99.90
57026;DHT22;43961;52.940;6.834;2023-05-07T14:17:39;19.00;99.90
57026;DHT22;43961;52.940;6.834;2023-05-07T14:20:05;19.00;99.90
57026;DHT22;43961;52.940;6.834;2023-05-07T14:22:32;18.90;99.90
57026;DHT22;43961;52.940;6.834;2023-05-07T14:24:58;18.90;99.90
57026;DHT22;43961;52.940;6.834;2023-05-07T14:27:24;19.00;99.90
57026;DHT22;43961;52.940;6.834;2023-05-07T14:29:49;19.00;99.90
57026;DHT22;43961;52.940;6.834;2023-05-07T14:32:19;19.00;99.90
57026;DHT22;43961;52.940;6.834;2023-05-07T14:34:45;18.80;99.90
57026;DHT22;43961;52.940;6.834;2023-05-07T14:37:11;18.70;99.90
57026;DHT22;43961;52.940;6.834;2023-05-07T14:39:37;18.70;99.90
57026;DHT22;43961;52.940;6.834;2023-05-07T14:42:03;18.80;99.90
57026;DHT22;43961;52.940;6.834;2023-05-07T14:44:28;18.70;99.90
57026;DHT22;43961;52.940;6.834;2023-05-07T14:46:57;18.70;99.90
57026;DHT22;43961;52.940;6.834;2023-05-07T14:49:22;18.70;99.90
57026;DHT22;43961;52.940;6.834;2023-05-07T14:51:49;18.60;99.90
57026;DHT22;43961;52.940;6.834;2023-05-07T14:54:15;18.50;99.90
57026;DHT22;43961;52.940;6.834;2023-05-07T14:56:41;18.50;99.90
57026;DHT22;43961;52.940;6.834;2023-05-07T14:59:08;18.40;99.90
57026;DHT22;43961;52.940;6.834;2023-05-07T15:01:38;18.30;99.90
57026;DHT22;43961;52.940;6.834;2023-05-07T15:04:04;18.20;99.90
57026;DHT22;43961;52.940;6.834;2023-05-07T15:06:30;18.10;99.90
57026;DHT22;43961;52.940;6.834;2023-05-07T15:08:56;18.10;99.90
57026;DHT22;43961;52.940;6.834;2023-05-07T15:11:22;18.00;99.90
57026;DHT22;43961;52.940;6.834;2023-05-07T15:13:48;18.00;99.90
57026;DHT22;43961;52.940;6.834;2023-05-07T15:16:14;17.90;99.90
57026;DHT22;43961;52.940;6.834;2023-05-07T15:18:40;18.00;99.90
57026;DHT22;43961;52.940;6.834;2023-05-07T15:21:06;18.00;99.90
57026;DHT22;43961;52.940;6.834;2023-05-07T15:23:32;18.00;99.90
57026;DHT22;43961;52.940;6.834;2023-05-07T15:25:57;18.00;99.90
57026;DHT22;43961;52.940;6.834;2023-05-07T15:28:23;18.10;99.90
57026;DHT22;43961;52.940;6.834;2023-05-07T15:30:50;18.10;99.90
57026;DHT22;43961;52.940;6.834;2023-05-07T15:33:16;18.00;99.90
57026;DHT22;43961;52.940;6.834;2023-05-07T15:35:41;18.00;99.90
57026;DHT22;43961;52.940;6.834;2023-05-07T15:38:07;17.90;99.90
57026;DHT22;43961;52.940;6.834;2023-05-07T15:40:34;17.80;99.90